Aviation Digital Data Service (ADDS)

Output produced by METARs form (1434 UTC 22 April 2019)
found at http://www.aviationweather.gov/metar/data/
 
METAR text: KBUR 221353Z 00000KT 10SM CLR 11/07 A2999 RMK AO2 SLP147 T01060072
Conditions at: KBUR (BURBANK , CA, US) observed 1353 UTC 22 April 2019
Temperature: 10.6°C (51°F)
Dewpoint: 7.2°C (45°F) [RH = 79%]
Pressure (altimeter): 29.99 inches Hg (1015.7 mb)
[Sea-level pressure: 1014.7 mb]
Winds: calm
Visibility: 10 or more miles (16+ km)
Ceiling: at least 12,000 feet AGL
Clouds: sky clear below 12,000 feet AGL
Weather: no significant weather observed at this time

METAR text: KBUR 221253Z 00000KT 10SM CLR 11/08 A2999 RMK AO2 SLP147 T01110083
Conditions at: KBUR (BURBANK , CA, US) observed 1253 UTC 22 April 2019
Temperature: 11.1°C (52°F)
Dewpoint: 8.3°C (47°F) [RH = 83%]
Pressure (altimeter): 29.99 inches Hg (1015.7 mb)
[Sea-level pressure: 1014.7 mb]
Winds: calm
Visibility: 10 or more miles (16+ km)
Ceiling: at least 12,000 feet AGL
Clouds: sky clear below 12,000 feet AGL
Weather: no significant weather observed at this time

METAR text: KBUR 221153Z AUTO 00000KT 10SM CLR 11/08 A2998 RMK AO2 SLP145 T01110083 10133 20111 56007
Conditions at: KBUR (BURBANK , CA, US) observed 1153 UTC 22 April 2019
Temperature: 11.1°C (52°F)
Dewpoint: 8.3°C (47°F) [RH = 83%]
Pressure (altimeter): 29.98 inches Hg (1015.3 mb)
[Sea-level pressure: 1014.5 mb]
Winds: calm
Visibility: 10 or more miles (16+ km)
Ceiling: at least 12,000 feet AGL
Clouds: sky clear below 12,000 feet AGL
Weather: automated observation with no human augmentation;
there may or may not be significant weather present at this time

METAR text: KBUR 221053Z AUTO 00000KT 10SM CLR 12/07 A2998 RMK AO2 SLP144 T01170072
Conditions at: KBUR (BURBANK , CA, US) observed 1053 UTC 22 April 2019
Temperature: 11.7°C (53°F)
Dewpoint: 7.2°C (45°F) [RH = 74%]
Pressure (altimeter): 29.98 inches Hg (1015.3 mb)
[Sea-level pressure: 1014.4 mb]
Winds: calm
Visibility: 10 or more miles (16+ km)
Ceiling: at least 12,000 feet AGL
Clouds: sky clear below 12,000 feet AGL
Weather: automated observation with no human augmentation;
there may or may not be significant weather present at this time

METAR text: KBUR 220953Z 00000KT 10SM CLR 12/07 A2998 RMK AO2 SLP144 T01220072
Conditions at: KBUR (BURBANK , CA, US) observed 0953 UTC 22 April 2019
Temperature: 12.2°C (54°F)
Dewpoint: 7.2°C (45°F) [RH = 71%]
Pressure (altimeter): 29.98 inches Hg (1015.3 mb)
[Sea-level pressure: 1014.4 mb]
Winds: calm
Visibility: 10 or more miles (16+ km)
Ceiling: at least 12,000 feet AGL
Clouds: sky clear below 12,000 feet AGL
Weather: no significant weather observed at this time

METAR text: KBUR 220853Z 00000KT 10SM BKN110 13/07 A3001 RMK AO2 SLP152 T01280072 50001
Conditions at: KBUR (BURBANK , CA, US) observed 0853 UTC 22 April 2019
Temperature: 12.8°C (55°F)
Dewpoint: 7.2°C (45°F) [RH = 69%]
Pressure (altimeter): 30.01 inches Hg (1016.3 mb)
[Sea-level pressure: 1015.2 mb]
Winds: calm
Visibility: 10 or more miles (16+ km)
Ceiling: 11000 feet AGL
Clouds: broken clouds at 11000 feet AGL
Weather: no significant weather observed at this time

METAR text: KBUR 220753Z 00000KT 10SM CLR 13/07 A3001 RMK AO2 SLP153 T01280072 402060122
Conditions at: KBUR (BURBANK , CA, US) observed 0753 UTC 22 April 2019
Temperature: 12.8°C (55°F)
Dewpoint: 7.2°C (45°F) [RH = 69%]
Pressure (altimeter): 30.01 inches Hg (1016.3 mb)
[Sea-level pressure: 1015.3 mb]
Winds: calm
Visibility: 10 or more miles (16+ km)
Ceiling: at least 12,000 feet AGL
Clouds: sky clear below 12,000 feet AGL
Weather: no significant weather observed at this time

METAR text: KBUR 220653Z 15003KT 10SM CLR 13/07 A3001 RMK AO2 SLP154 T01330072
Conditions at: KBUR (BURBANK , CA, US) observed 0653 UTC 22 April 2019
Temperature: 13.3°C (56°F)
Dewpoint: 7.2°C (45°F) [RH = 66%]
Pressure (altimeter): 30.01 inches Hg (1016.3 mb)
[Sea-level pressure: 1015.4 mb]
Winds: from the SSE (150 degrees) at 3 MPH (3 knots; 1.5 m/s)
Visibility: 10 or more miles (16+ km)
Ceiling: at least 12,000 feet AGL
Clouds: sky clear below 12,000 feet AGL
Weather: no significant weather observed at this time

METAR text: KBUR 220553Z 13008KT 10SM CLR 13/08 A3000 RMK AO2 SLP152 T01330078 10194 20133 51015
Conditions at: KBUR (BURBANK , CA, US) observed 0553 UTC 22 April 2019
Temperature: 13.3°C (56°F)
Dewpoint: 7.8°C (46°F) [RH = 69%]
Pressure (altimeter): 30.00 inches Hg (1016.0 mb)
[Sea-level pressure: 1015.2 mb]
Winds: from the SE (130 degrees) at 9 MPH (8 knots; 4.1 m/s)
Visibility: 10 or more miles (16+ km)
Ceiling: at least 12,000 feet AGL
Clouds: sky clear below 12,000 feet AGL
Weather: no significant weather observed at this time

METAR text: KBUR 220453Z 12008KT 10SM CLR 14/08 A2999 RMK AO2 SLP148 T01390078
Conditions at: KBUR (BURBANK , CA, US) observed 0453 UTC 22 April 2019
Temperature: 13.9°C (57°F)
Dewpoint: 7.8°C (46°F) [RH = 67%]
Pressure (altimeter): 29.99 inches Hg (1015.7 mb)
[Sea-level pressure: 1014.8 mb]
Winds: from the ESE (120 degrees) at 9 MPH (8 knots; 4.1 m/s)
Visibility: 10 or more miles (16+ km)
Ceiling: at least 12,000 feet AGL
Clouds: sky clear below 12,000 feet AGL
Weather: no significant weather observed at this time

METAR text: KBUR 220353Z 14006KT 10SM CLR 14/08 A2997 RMK AO2 SLP141 T01440078
Conditions at: KBUR (BURBANK , CA, US) observed 0353 UTC 22 April 2019
Temperature: 14.4°C (58°F)
Dewpoint: 7.8°C (46°F) [RH = 65%]
Pressure (altimeter): 29.97 inches Hg (1015.0 mb)
[Sea-level pressure: 1014.1 mb]
Winds: from the SE (140 degrees) at 7 MPH (6 knots; 3.1 m/s)
Visibility: 10 or more miles (16+ km)
Ceiling: at least 12,000 feet AGL
Clouds: sky clear below 12,000 feet AGL
Weather: no significant weather observed at this time

METAR text: KBUR 220253Z 17007KT 10SM CLR 15/07 A2996 RMK AO2 SLP137 T01500067 53004
Conditions at: KBUR (BURBANK , CA, US) observed 0253 UTC 22 April 2019
Temperature: 15.0°C (59°F)
Dewpoint: 6.7°C (44°F) [RH = 58%]
Pressure (altimeter): 29.96 inches Hg (1014.6 mb)
[Sea-level pressure: 1013.7 mb]
Winds: from the S (170 degrees) at 8 MPH (7 knots; 3.6 m/s)
Visibility: 10 or more miles (16+ km)
Ceiling: at least 12,000 feet AGL
Clouds: sky clear below 12,000 feet AGL
Weather: no significant weather observed at this time

METAR text: KBUR 220153Z 19007KT 10SM CLR 17/07 A2996 RMK AO2 SLP136 T01670072
Conditions at: KBUR (BURBANK , CA, US) observed 0153 UTC 22 April 2019
Temperature: 16.7°C (62°F)
Dewpoint: 7.2°C (45°F) [RH = 53%]
Pressure (altimeter): 29.96 inches Hg (1014.6 mb)
[Sea-level pressure: 1013.6 mb]
Winds: from the S (190 degrees) at 8 MPH (7 knots; 3.6 m/s)
Visibility: 10 or more miles (16+ km)
Ceiling: at least 12,000 feet AGL
Clouds: sky clear below 12,000 feet AGL
Weather: no significant weather observed at this time

METAR text: KBUR 220053Z 20010KT 10SM CLR 18/08 A2995 RMK AO2 SLP133 T01780078
Conditions at: KBUR (BURBANK , CA, US) observed 0053 UTC 22 April 2019
Temperature: 17.8°C (64°F)
Dewpoint: 7.8°C (46°F) [RH = 52%]
Pressure (altimeter): 29.95 inches Hg (1014.3 mb)
[Sea-level pressure: 1013.3 mb]
Winds: from the SSW (200 degrees) at 12 MPH (10 knots; 5.1 m/s)
Visibility: 10 or more miles (16+ km)
Ceiling: at least 12,000 feet AGL
Clouds: sky clear below 12,000 feet AGL
Weather: no significant weather observed at this time

METAR text: KBUR 212353Z 18009KT 10SM CLR 19/08 A2995 RMK AO2 SLP132 T01890083 10206 20150 56013
Conditions at: KBUR (BURBANK , CA, US) observed 2353 UTC 21 April 2019
Temperature: 18.9°C (66°F)
Dewpoint: 8.3°C (47°F) [RH = 50%]
Pressure (altimeter): 29.95 inches Hg (1014.3 mb)
[Sea-level pressure: 1013.2 mb]
Winds: from the S (180 degrees) at 10 MPH (9 knots; 4.6 m/s)
Visibility: 10 or more miles (16+ km)
Ceiling: at least 12,000 feet AGL
Clouds: sky clear below 12,000 feet AGL
Weather: no significant weather observed at this time

METAR text: KBUR 212253Z 20010KT 10SM CLR 20/08 A2995 RMK AO2 SLP132 T02000083
Conditions at: KBUR (BURBANK , CA, US) observed 2253 UTC 21 April 2019
Temperature: 20.0°C (68°F)
Dewpoint: 8.3°C (47°F) [RH = 47%]
Pressure (altimeter): 29.95 inches Hg (1014.3 mb)
[Sea-level pressure: 1013.2 mb]
Winds: from the SSW (200 degrees) at 12 MPH (10 knots; 5.1 m/s)
Visibility: 10 or more miles (16+ km)
Ceiling: at least 12,000 feet AGL
Clouds: sky clear below 12,000 feet AGL
Weather: no significant weather observed at this time

METAR text: KBUR 212153Z VRB03KT 10SM CLR 20/08 A2996 RMK AO2 SLP137 T02000083
Conditions at: KBUR (BURBANK , CA, US) observed 2153 UTC 21 April 2019
Temperature: 20.0°C (68°F)
Dewpoint: 8.3°C (47°F) [RH = 47%]
Pressure (altimeter): 29.96 inches Hg (1014.6 mb)
[Sea-level pressure: 1013.7 mb]
Winds: variable direction winds at 3 MPH (3 knots; 1.5 m/s)
Visibility: 10 or more miles (16+ km)
Ceiling: at least 12,000 feet AGL
Clouds: sky clear below 12,000 feet AGL
Weather: no significant weather observed at this time

METAR text: KBUR 212053Z 18008KT 10SM FEW039 19/08 A2999 RMK AO2 SLP145 T01890083 58014
Conditions at: KBUR (BURBANK , CA, US) observed 2053 UTC 21 April 2019
Temperature: 18.9°C (66°F)
Dewpoint: 8.3°C (47°F) [RH = 50%]
Pressure (altimeter): 29.99 inches Hg (1015.7 mb)
[Sea-level pressure: 1014.5 mb]
Winds: from the S (180 degrees) at 9 MPH (8 knots; 4.1 m/s)
Visibility: 10 or more miles (16+ km)
Ceiling: at least 12,000 feet AGL
Clouds: few clouds at 3900 feet AGL
Weather: no significant weather observed at this time

METAR text: KBUR 211953Z 19007KT 10SM SCT036 18/08 A3000 RMK AO2 SLP150 T01830083
Conditions at: KBUR (BURBANK , CA, US) observed 1953 UTC 21 April 2019
Temperature: 18.3°C (65°F)
Dewpoint: 8.3°C (47°F) [RH = 52%]
Pressure (altimeter): 30.00 inches Hg (1016.0 mb)
[Sea-level pressure: 1015.0 mb]
Winds: from the S (190 degrees) at 8 MPH (7 knots; 3.6 m/s)
Visibility: 10 or more miles (16+ km)
Ceiling: at least 12,000 feet AGL
Clouds: scattered clouds at 3600 feet AGL
Weather: no significant weather observed at this time

METAR text: KBUR 211853Z VRB04KT 10SM BKN035 17/08 A3002 RMK AO2 SLP157 T01720083
Conditions at: KBUR (BURBANK , CA, US) observed 1853 UTC 21 April 2019
Temperature: 17.2°C (63°F)
Dewpoint: 8.3°C (47°F) [RH = 56%]
Pressure (altimeter): 30.02 inches Hg (1016.7 mb)
[Sea-level pressure: 1015.7 mb]
Winds: variable direction winds at 5 MPH (4 knots; 2.1 m/s)
Visibility: 10 or more miles (16+ km)
Ceiling: 3500 feet AGL
Clouds: broken clouds at 3500 feet AGL
Weather: no significant weather observed at this time

METAR text: KBUR 211753Z VRB05KT 10SM SCT022 15/08 A3003 RMK AO2 SLP160 T01500083 10161 20122 50005
Conditions at: KBUR (BURBANK , CA, US) observed 1753 UTC 21 April 2019
Temperature: 15.0°C (59°F)
Dewpoint: 8.3°C (47°F) [RH = 64%]
Pressure (altimeter): 30.03 inches Hg (1017.0 mb)
[Sea-level pressure: 1016.0 mb]
Winds: variable direction winds at 6 MPH (5 knots; 2.6 m/s)
Visibility: 10 or more miles (16+ km)
Ceiling: at least 12,000 feet AGL
Clouds: scattered clouds at 2200 feet AGL
Weather: no significant weather observed at this time

METAR text: KBUR 211653Z VRB04KT 10SM SCT022 BKN041 14/09 A3003 RMK AO2 SLP161 T01440089
Conditions at: KBUR (BURBANK , CA, US) observed 1653 UTC 21 April 2019
Temperature: 14.4°C (58°F)
Dewpoint: 8.9°C (48°F) [RH = 70%]
Pressure (altimeter): 30.03 inches Hg (1017.0 mb)
[Sea-level pressure: 1016.1 mb]
Winds: variable direction winds at 5 MPH (4 knots; 2.1 m/s)
Visibility: 10 or more miles (16+ km)
Ceiling: 4100 feet AGL
Clouds: scattered clouds at 2200 feet AGL
broken clouds at 4100 feet AGL
Weather: no significant weather observed at this time

METAR text: KBUR 211641Z 17004KT 10SM SCT022 BKN041 14/09 A3003 RMK AO2 T01390089
Conditions at: KBUR (BURBANK , CA, US) observed 1641 UTC 21 April 2019
Temperature: 13.9°C (57°F)
Dewpoint: 8.9°C (48°F) [RH = 72%]
Pressure (altimeter): 30.03 inches Hg (1017.0 mb)
Winds: from the S (170 degrees) at 5 MPH (4 knots; 2.1 m/s)
Visibility: 10 or more miles (16+ km)
Ceiling: 4100 feet AGL
Clouds: scattered clouds at 2200 feet AGL
broken clouds at 4100 feet AGL
Weather: no significant weather observed at this time

METAR text: KBUR 211553Z 16005KT 10SM BKN018 OVC042 13/09 A3002 RMK AO2 SLP159 T01330089
Conditions at: KBUR (BURBANK , CA, US) observed 1553 UTC 21 April 2019
Temperature: 13.3°C (56°F)
Dewpoint: 8.9°C (48°F) [RH = 75%]
Pressure (altimeter): 30.02 inches Hg (1016.7 mb)
[Sea-level pressure: 1015.9 mb]
Winds: from the SSE (160 degrees) at 6 MPH (5 knots; 2.6 m/s)
Visibility: 10 or more miles (16+ km)
Ceiling: 1800 feet AGL
Clouds: broken clouds at 1800 feet AGL
overcast cloud deck at 4200 feet AGL
Weather: no significant weather observed at this time

METAR text: KBUR 211453Z 18003KT 10SM SCT027 BKN039 12/09 A3001 RMK AO2 SLP156 T01220094 53007
Conditions at: KBUR (BURBANK , CA, US) observed 1453 UTC 21 April 2019
Temperature: 12.2°C (54°F)
Dewpoint: 9.4°C (49°F) [RH = 83%]
Pressure (altimeter): 30.01 inches Hg (1016.3 mb)
[Sea-level pressure: 1015.6 mb]
Winds: from the S (180 degrees) at 3 MPH (3 knots; 1.5 m/s)
Visibility: 10 or more miles (16+ km)
Ceiling: 3900 feet AGL
Clouds: scattered clouds at 2700 feet AGL
broken clouds at 3900 feet AGL
Weather: no significant weather observed at this time

METAR text: KBUR 211353Z 17004KT 10SM FEW025 BKN034 12/09 A3000 RMK AO2 SLP151 T01220094
Conditions at: KBUR (BURBANK , CA, US) observed 1353 UTC 21 April 2019
Temperature: 12.2°C (54°F)
Dewpoint: 9.4°C (49°F) [RH = 83%]
Pressure (altimeter): 30.00 inches Hg (1016.0 mb)
[Sea-level pressure: 1015.1 mb]
Winds: from the S (170 degrees) at 5 MPH (4 knots; 2.1 m/s)
Visibility: 10 or more miles (16+ km)
Ceiling: 3400 feet AGL
Clouds: few clouds at 2500 feet AGL
broken clouds at 3400 feet AGL
Weather: no significant weather observed at this time

METAR text: KBUR 211253Z 17004KT 10SM FEW019 BKN025 OVC038 12/09 A3000 RMK AO2 SLP150 T01220094
Conditions at: KBUR (BURBANK , CA, US) observed 1253 UTC 21 April 2019
Temperature: 12.2°C (54°F)
Dewpoint: 9.4°C (49°F) [RH = 83%]
Pressure (altimeter): 30.00 inches Hg (1016.0 mb)
[Sea-level pressure: 1015.0 mb]
Winds: from the S (170 degrees) at 5 MPH (4 knots; 2.1 m/s)
Visibility: 10 or more miles (16+ km)
Ceiling: 2500 feet AGL
Clouds: few clouds at 1900 feet AGL
broken clouds at 2500 feet AGL
overcast cloud deck at 3800 feet AGL
Weather: no significant weather observed at this time

METAR text: KBUR 211153Z 18005KT 10SM OVC020 12/10 A2999 RMK AO2 SLP148 T01220100 10139 20122 53000
Conditions at: KBUR (BURBANK , CA, US) observed 1153 UTC 21 April 2019
Temperature: 12.2°C (54°F)
Dewpoint: 10.0°C (50°F) [RH = 86%]
Pressure (altimeter): 29.99 inches Hg (1015.7 mb)
[Sea-level pressure: 1014.8 mb]
Winds: from the S (180 degrees) at 6 MPH (5 knots; 2.6 m/s)
Visibility: 10 or more miles (16+ km)
Ceiling: 2000 feet AGL
Clouds: overcast cloud deck at 2000 feet AGL
Weather: no significant weather observed at this time

METAR text: KBUR 211053Z 17004KT 10SM OVC019 13/10 A2999 RMK AO2 CIG 012V022 SLP147 T01280100
Conditions at: KBUR (BURBANK , CA, US) observed 1053 UTC 21 April 2019
Temperature: 12.8°C (55°F)
Dewpoint: 10.0°C (50°F) [RH = 83%]
Pressure (altimeter): 29.99 inches Hg (1015.7 mb)
[Sea-level pressure: 1014.7 mb]
Winds: from the S (170 degrees) at 5 MPH (4 knots; 2.1 m/s)
Visibility: 10 or more miles (16+ km)
Ceiling: 1900 feet AGL
Clouds: overcast cloud deck at 1900 feet AGL
Weather: no significant weather observed at this time

METAR text: KBUR 211028Z 17006KT 10SM BKN016 BKN022 OVC035 13/10 A2999 RMK AO2 T01280100
Conditions at: KBUR (BURBANK , CA, US) observed 1028 UTC 21 April 2019
Temperature: 12.8°C (55°F)
Dewpoint: 10.0°C (50°F) [RH = 83%]
Pressure (altimeter): 29.99 inches Hg (1015.7 mb)
Winds: from the S (170 degrees) at 7 MPH (6 knots; 3.1 m/s)
Visibility: 10 or more miles (16+ km)
Ceiling: 1600 feet AGL
Clouds: broken clouds at 1600 feet AGL
broken clouds at 2200 feet AGL
overcast cloud deck at 3500 feet AGL
Weather: no significant weather observed at this time

METAR text: KBUR 210953Z 16007KT 10SM FEW016 OVC033 13/11 A2998 RMK AO2 SLP145 T01280106
Conditions at: KBUR (BURBANK , CA, US) observed 0953 UTC 21 April 2019
Temperature: 12.8°C (55°F)
Dewpoint: 10.6°C (51°F) [RH = 86%]
Pressure (altimeter): 29.98 inches Hg (1015.3 mb)
[Sea-level pressure: 1014.5 mb]
Winds: from the SSE (160 degrees) at 8 MPH (7 knots; 3.6 m/s)
Visibility: 10 or more miles (16+ km)
Ceiling: 3300 feet AGL
Clouds: few clouds at 1600 feet AGL
overcast cloud deck at 3300 feet AGL
Weather: no significant weather observed at this time

METAR text: KBUR 210853Z 14007KT 10SM OVC034 13/11 A2999 RMK AO2 SLP148 T01280106 50001
Conditions at: KBUR (BURBANK , CA, US) observed 0853 UTC 21 April 2019
Temperature: 12.8°C (55°F)
Dewpoint: 10.6°C (51°F) [RH = 86%]
Pressure (altimeter): 29.99 inches Hg (1015.7 mb)
[Sea-level pressure: 1014.8 mb]
Winds: from the SE (140 degrees) at 8 MPH (7 knots; 3.6 m/s)
Visibility: 10 or more miles (16+ km)
Ceiling: 3400 feet AGL
Clouds: overcast cloud deck at 3400 feet AGL
Weather: no significant weather observed at this time

METAR text: KBUR 210804Z 14007KT 10SM OVC032 13/10 A2999 RMK AO2 T01330100
Conditions at: KBUR (BURBANK , CA, US) observed 0804 UTC 21 April 2019
Temperature: 13.3°C (56°F)
Dewpoint: 10.0°C (50°F) [RH = 80%]
Pressure (altimeter): 29.99 inches Hg (1015.7 mb)
Winds: from the SE (140 degrees) at 8 MPH (7 knots; 3.6 m/s)
Visibility: 10 or more miles (16+ km)
Ceiling: 3200 feet AGL
Clouds: overcast cloud deck at 3200 feet AGL
Weather: no significant weather observed at this time

METAR text: KBUR 210753Z 13006KT 10SM OVC029 14/10 A2999 RMK AO2 SLP149 T01390100 401830128
Conditions at: KBUR (BURBANK , CA, US) observed 0753 UTC 21 April 2019
Temperature: 13.9°C (57°F)
Dewpoint: 10.0°C (50°F) [RH = 77%]
Pressure (altimeter): 29.99 inches Hg (1015.7 mb)
[Sea-level pressure: 1014.9 mb]
Winds: from the SE (130 degrees) at 7 MPH (6 knots; 3.1 m/s)
Visibility: 10 or more miles (16+ km)
Ceiling: 2900 feet AGL
Clouds: overcast cloud deck at 2900 feet AGL
Weather: no significant weather observed at this time

METAR text: KBUR 210653Z 18006KT 10SM OVC028 13/11 A3000 RMK AO2 SLP150 T01330106
Conditions at: KBUR (BURBANK , CA, US) observed 0653 UTC 21 April 2019
Temperature: 13.3°C (56°F)
Dewpoint: 10.6°C (51°F) [RH = 84%]
Pressure (altimeter): 30.00 inches Hg (1016.0 mb)
[Sea-level pressure: 1015.0 mb]
Winds: from the S (180 degrees) at 7 MPH (6 knots; 3.1 m/s)
Visibility: 10 or more miles (16+ km)
Ceiling: 2800 feet AGL
Clouds: overcast cloud deck at 2800 feet AGL
Weather: no significant weather observed at this time

METAR text: KBUR 210553Z 18006KT 10SM OVC028 14/10 A2999 RMK AO2 SLP147 T01390100 10172 20139 50009
Conditions at: KBUR (BURBANK , CA, US) observed 0553 UTC 21 April 2019
Temperature: 13.9°C (57°F)
Dewpoint: 10.0°C (50°F) [RH = 77%]
Pressure (altimeter): 29.99 inches Hg (1015.7 mb)
[Sea-level pressure: 1014.7 mb]
Winds: from the S (180 degrees) at 7 MPH (6 knots; 3.1 m/s)
Visibility: 10 or more miles (16+ km)
Ceiling: 2800 feet AGL
Clouds: overcast cloud deck at 2800 feet AGL
Weather: no significant weather observed at this time

METAR text: KBUR 210453Z VRB04KT 10SM OVC026 14/10 A2999 RMK AO2 SLP147 T01440100
Conditions at: KBUR (BURBANK , CA, US) observed 0453 UTC 21 April 2019
Temperature: 14.4°C (58°F)
Dewpoint: 10.0°C (50°F) [RH = 75%]
Pressure (altimeter): 29.99 inches Hg (1015.7 mb)
[Sea-level pressure: 1014.7 mb]
Winds: variable direction winds at 5 MPH (4 knots; 2.1 m/s)
Visibility: 10 or more miles (16+ km)
Ceiling: 2600 feet AGL
Clouds: overcast cloud deck at 2600 feet AGL
Weather: no significant weather observed at this time

METAR text: KBUR 210353Z 14004KT 10SM BKN024 OVC030 14/09 A2998 RMK AO2 SLP143 T01440094
Conditions at: KBUR (BURBANK , CA, US) observed 0353 UTC 21 April 2019
Temperature: 14.4°C (58°F)
Dewpoint: 9.4°C (49°F) [RH = 72%]
Pressure (altimeter): 29.98 inches Hg (1015.3 mb)
[Sea-level pressure: 1014.3 mb]
Winds: from the SE (140 degrees) at 5 MPH (4 knots; 2.1 m/s)
Visibility: 10 or more miles (16+ km)
Ceiling: 2400 feet AGL
Clouds: broken clouds at 2400 feet AGL
overcast cloud deck at 3000 feet AGL
Weather: no significant weather observed at this time

METAR text: KBUR 210336Z 15004KT 10SM OVC028 14/09 A2998 RMK AO2 T01440089
Conditions at: KBUR (BURBANK , CA, US) observed 0336 UTC 21 April 2019
Temperature: 14.4°C (58°F)
Dewpoint: 8.9°C (48°F) [RH = 70%]
Pressure (altimeter): 29.98 inches Hg (1015.3 mb)
Winds: from the SSE (150 degrees) at 5 MPH (4 knots; 2.1 m/s)
Visibility: 10 or more miles (16+ km)
Ceiling: 2800 feet AGL
Clouds: overcast cloud deck at 2800 feet AGL
Weather: no significant weather observed at this time

METAR text: KBUR 210253Z 15005KT 10SM OVC032 14/09 A2996 RMK AO2 SLP137 T01440089 50003
Conditions at: KBUR (BURBANK , CA, US) observed 0253 UTC 21 April 2019
Temperature: 14.4°C (58°F)
Dewpoint: 8.9°C (48°F) [RH = 70%]
Pressure (altimeter): 29.96 inches Hg (1014.6 mb)
[Sea-level pressure: 1013.7 mb]
Winds: from the SSE (150 degrees) at 6 MPH (5 knots; 2.6 m/s)
Visibility: 10 or more miles (16+ km)
Ceiling: 3200 feet AGL
Clouds: overcast cloud deck at 3200 feet AGL
Weather: no significant weather observed at this time

Forecast for: KBUR (BURBANK , CA, US)
Text: KBUR 221125Z 2212/2312 VRB03KT P6SM SKC
Forecast period: 1200 to 2000 UTC 22 April 2019
Forecast type: FROM: standard forecast or significant change
Winds: variable direction winds at 3 MPH (3 knots; 1.5 m/s)
Visibility: 6 or more miles 10+ km)
Clouds: clear skies
Weather: no significant weather forecast for this period
Text: FM222000 16012KT P6SM SKC
Forecast period: 2000 UTC 22 April 2019 to 0300 UTC 23 April 2019
Forecast type: FROM: standard forecast or significant change
Winds: from the SSE (160 degrees) at 14 MPH (12 knots; 6.2 m/s)
Visibility: 6 or more miles 10+ km)
Clouds: clear skies
Weather: no significant weather forecast for this period
Text: FM230300 04008KT P6SM SKC
Forecast period: 0300 to 0900 UTC 23 April 2019
Forecast type: FROM: standard forecast or significant change
Winds: from the NE (40 degrees) at 9 MPH (8 knots; 4.1 m/s)
Visibility: 6 or more miles 10+ km)
Clouds: clear skies
Weather: no significant weather forecast for this period
Text: FM230900 VRB03KT P6SM SKC
Forecast period: 0900 to 1200 UTC 23 April 2019
Forecast type: FROM: standard forecast or significant change
Winds: variable direction winds at 3 MPH (3 knots; 1.5 m/s)
Visibility: 6 or more miles 10+ km)
Clouds: clear skies
Weather: no significant weather forecast for this period